Time;durP1;ratioP1;P1;durP2;ratioP2;P2;SDS_P1;SDS_P2;PMS_P1;PMS_P2;Temp;Humidity;BMP_temperature;BMP_pressure;BME280_temperature;BME280_humidity;BME280_pressure;Samples;Min_cycle;Max_cycle;Signal;HPM_P1;HPM_P2
2021/06/22 00:02:24;;;;;;;2.55;1.75;;;;;;;;;;10576859;27;20050;-58
2021/06/22 00:07:26;;;;;;;2.30;1.67;;;;;;;;;;10558285;28;20123;-58
2021/06/22 00:12:27;;;;;;;3.10;1.80;;;;;;;;;;10569825;27;20063;-58
2021/06/22 00:17:29;;;;;;;4.47;1.90;;;;;;;;;;10605288;27;20047;-58
2021/06/22 00:22:30;;;;;;;5.15;2.15;;;;;;;;;;10610158;27;20730;-59
2021/06/22 00:27:32;;;;;;;4.18;2.10;;;;;;;;;;10582748;27;20073;-59
2021/06/22 00:32:34;;;;;;;5.13;2.42;;;;;;;;;;10569830;28;20047;-59
2021/06/22 00:37:35;;;;;;;4.35;2.60;;;;;;;;;;10557791;27;20118;-59
2021/06/22 00:42:38;;;;;;;5.65;2.53;;;;;;;;;;10557826;27;20134;-59
2021/06/22 00:47:40;;;;;;;6.18;2.05;;;;;;;;;;10597044;27;20418;-59
2021/06/22 00:52:41;;;;;;;3.17;2.20;;;;;;;;;;10557764;28;20141;-59
2021/06/22 00:57:43;;;;;;;4.13;2.95;;;;;;;;;;10557449;27;20062;-59
2021/06/22 01:02:44;;;;;;;6.05;2.70;;;;;;;;;;10569902;27;20050;-59
2021/06/22 01:07:47;;;;;;;4.03;2.70;;;;;;;;;;10575592;27;20122;-60
2021/06/22 01:12:49;;;;;;;6.97;3.35;;;;;;;;;;10611297;28;20130;-59
2021/06/22 01:17:52;;;;;;;4.95;3.25;;;;;;;;;;10573582;28;20292;-59
2021/06/22 01:22:53;;;;;;;4.32;2.90;;;;;;;;;;10570456;28;20134;-59
2021/06/22 01:27:55;;;;;;;4.90;2.95;;;;;;;;;;10561780;28;20078;-58
2021/06/22 01:32:57;;;;;;;5.05;2.90;;;;;;;;;;10563546;28;20058;-59
2021/06/22 01:38:03;;;;;;;4.45;3.03;;;;;;;;;;10597090;28;20409;-59
2021/06/22 01:43:04;;;;;;;7.85;3.00;;;;;;;;;;10572676;28;20055;-59
2021/06/22 01:48:06;;;;;;;6.20;2.45;;;;;;;;;;10567769;28;20130;-59
2021/06/22 01:53:08;;;;;;;4.30;3.15;;;;;;;;;;10568323;28;20047;-59
2021/06/22 01:58:11;;;;;;;7.00;3.00;;;;;;;;;;10572192;28;20075;-59
2021/06/22 02:03:17;;;;;;;5.13;3.30;;;;;;;;;;10585573;27;20496;-59
2021/06/22 02:08:18;;;;;;;8.15;3.22;;;;;;;;;;10587266;27;20044;-59
2021/06/22 02:13:21;;;;;;;5.45;3.40;;;;;;;;;;10591994;27;20159;-58
2021/06/22 02:18:25;;;;;;;3.97;2.30;;;;;;;;;;10583120;27;20043;-59
2021/06/22 02:23:26;;;;;;;3.40;1.85;;;;;;;;;;10608819;27;20126;-58
2021/06/22 02:28:28;;;;;;;4.10;1.90;;;;;;;;;;10600325;27;20660;-58
2021/06/22 02:33:29;;;;;;;5.03;2.30;;;;;;;;;;10609129;27;20043;-58
2021/06/22 02:38:31;;;;;;;4.70;2.60;;;;;;;;;;10603888;27;20479;-59
2021/06/22 02:43:32;;;;;;;4.15;1.70;;;;;;;;;;10596296;27;20082;-58
2021/06/22 02:48:34;;;;;;;3.58;1.98;;;;;;;;;;10602392;27;20130;-59
2021/06/22 02:53:35;;;;;;;3.83;1.90;;;;;;;;;;10605696;27;20061;-59
2021/06/22 02:58:37;;;;;;;3.08;2.00;;;;;;;;;;10583134;27;20490;-58
2021/06/22 03:03:38;;;;;;;4.85;1.88;;;;;;;;;;10576822;27;20122;-59
2021/06/22 03:08:40;;;;;;;2.55;1.70;;;;;;;;;;10613371;27;20043;-59
2021/06/22 03:13:41;;;;;;;7.20;2.15;;;;;;;;;;10580535;27;20077;-59
2021/06/22 03:18:43;;;;;;;2.38;1.75;;;;;;;;;;10603248;27;20052;-59
2021/06/22 03:23:44;;;;;;;2.40;1.85;;;;;;;;;;10604803;27;20127;-59
2021/06/22 03:28:46;;;;;;;5.20;2.00;;;;;;;;;;10609322;27;20082;-60
2021/06/22 03:33:47;;;;;;;4.57;1.95;;;;;;;;;;10590312;27;20566;-58
2021/06/22 03:38:49;;;;;;;2.40;1.65;;;;;;;;;;10598611;27;20114;-59
2021/06/22 03:43:51;;;;;;;3.20;2.03;;;;;;;;;;10587368;27;20451;-59
2021/06/22 03:48:52;;;;;;;3.65;1.80;;;;;;;;;;10578574;27;20047;-59
2021/06/22 03:53:54;;;;;;;2.53;1.83;;;;;;;;;;10573437;27;20126;-58
2021/06/22 03:58:56;;;;;;;3.10;2.00;;;;;;;;;;10596402;27;20051;-58
2021/06/22 04:03:57;;;;;;;2.50;1.90;;;;;;;;;;10590981;27;20055;-58
2021/06/22 04:08:59;;;;;;;3.92;1.90;;;;;;;;;;10575863;27;20126;-58
2021/06/22 04:14:00;;;;;;;4.18;1.63;;;;;;;;;;10594187;27;20142;-58
2021/06/22 04:19:02;;;;;;;2.78;1.50;;;;;;;;;;10587491;27;20130;-58
2021/06/22 04:24:03;;;;;;;3.20;1.75;;;;;;;;;;10575427;27;20480;-59
2021/06/22 04:29:05;;;;;;;2.83;1.80;;;;;;;;;;10576594;27;20054;-58
2021/06/22 04:34:06;;;;;;;4.53;1.80;;;;;;;;;;10575033;27;20413;-59
2021/06/22 04:39:08;;;;;;;2.00;1.25;;;;;;;;;;10577463;27;20118;-58
2021/06/22 04:44:10;;;;;;;2.53;1.38;;;;;;;;;;10591461;27;20477;-59
2021/06/22 04:49:11;;;;;;;3.40;1.30;;;;;;;;;;10595469;27;20126;-59
2021/06/22 04:54:13;;;;;;;2.22;1.17;;;;;;;;;;10612288;27;20151;-60
2021/06/22 04:59:14;;;;;;;2.78;1.20;;;;;;;;;;10579546;27;20043;-60
2021/06/22 05:04:16;;;;;;;2.33;1.10;;;;;;;;;;10594203;27;20496;-59
2021/06/22 05:09:17;;;;;;;1.73;1.20;;;;;;;;;;10574285;28;20039;-59
2021/06/22 05:14:19;;;;;;;2.03;1.10;;;;;;;;;;10608261;27;20059;-59
2021/06/22 05:19:20;;;;;;;2.78;1.20;;;;;;;;;;10574354;28;20471;-60
2021/06/22 05:24:22;;;;;;;2.92;1.30;;;;;;;;;;10598831;27;20313;-58
2021/06/22 05:29:23;;;;;;;2.03;1.20;;;;;;;;;;10582031;28;20054;-60
2021/06/22 05:34:25;;;;;;;1.25;1.10;;;;;;;;;;10601596;27;20126;-60
2021/06/22 05:39:27;;;;;;;2.97;1.30;;;;;;;;;;10583458;27;20051;-60
2021/06/22 05:44:28;;;;;;;2.75;1.50;;;;;;;;;;10589598;27;20077;-61
2021/06/22 05:49:30;;;;;;;2.10;1.42;;;;;;;;;;10592511;27;20133;-60
2021/06/22 05:54:31;;;;;;;3.38;1.60;;;;;;;;;;10594284;27;20060;-60
2021/06/22 05:59:33;;;;;;;2.75;1.50;;;;;;;;;;10595094;27;20044;-60
2021/06/22 06:04:34;;;;;;;2.33;1.40;;;;;;;;;;10577770;27;20081;-60
2021/06/22 06:09:37;;;;;;;2.13;1.30;;;;;;;;;;10567894;27;20452;-60
2021/06/22 06:14:38;;;;;;;4.68;1.50;;;;;;;;;;10604788;27;20058;-59
2021/06/22 06:19:40;;;;;;;4.15;1.27;;;;;;;;;;10563215;27;20118;-60
2021/06/22 06:24:41;;;;;;;1.25;1.00;;;;;;;;;;10572586;27;20040;-59
2021/06/22 06:30:01;;;;;;;4.22;1.13;;;;;;;;;;10580562;27;20048;-59
2021/06/22 06:35:03;;;;;;;3.53;1.20;;;;;;;;;;10581837;27;20564;-60
2021/06/22 06:40:05;;;;;;;1.60;1.00;;;;;;;;;;10557281;27;20376;-59
2021/06/22 06:45:08;;;;;;;2.53;1.00;;;;;;;;;;10545383;28;20571;-59
2021/06/22 06:50:10;;;;;;;3.03;1.27;;;;;;;;;;10581767;27;20134;-59
2021/06/22 06:55:35;;;;;;;2.40;1.10;;;;;;;;;;10594938;27;20039;-59
2021/06/22 07:00:38;;;;;;;2.97;1.25;;;;;;;;;;10578015;27;20134;-59
2021/06/22 07:05:39;;;;;;;2.47;1.58;;;;;;;;;;10580252;27;20075;-59
2021/06/22 07:10:41;;;;;;;1.85;1.42;;;;;;;;;;10594872;27;20150;-60
2021/06/22 07:15:43;;;;;;;1.67;1.38;;;;;;;;;;10608679;27;20493;-59
2021/06/22 07:20:44;;;;;;;2.60;1.60;;;;;;;;;;10568379;27;20127;-59
2021/06/22 07:25:46;;;;;;;3.67;1.60;;;;;;;;;;10564576;27;20130;-59
2021/06/22 07:30:47;;;;;;;2.20;1.20;;;;;;;;;;10576342;27;20054;-59
2021/06/22 07:35:49;;;;;;;2.58;1.40;;;;;;;;;;10606137;27;20129;-59
2021/06/22 07:40:51;;;;;;;2.70;1.60;;;;;;;;;;10581298;27;20122;-58
2021/06/22 07:45:52;;;;;;;1.80;1.30;;;;;;;;;;10574118;27;20123;-59
2021/06/22 07:50:55;;;;;;;5.30;1.30;;;;;;;;;;10588669;27;20074;-59
2021/06/22 07:55:56;;;;;;;1.70;1.10;;;;;;;;;;10570008;27;20355;-59
2021/06/22 08:00:58;;;;;;;2.42;1.40;;;;;;;;;;10585629;27;20035;-59
2021/06/22 08:06:00;;;;;;;2.95;1.48;;;;;;;;;;10568713;27;20046;-59
2021/06/22 08:11:01;;;;;;;3.80;1.30;;;;;;;;;;10576873;27;20463;-59
2021/06/22 08:16:03;;;;;;;3.88;1.50;;;;;;;;;;10587654;27;20260;-59
2021/06/22 08:21:05;;;;;;;2.13;1.38;;;;;;;;;;10584562;27;20043;-59
2021/06/22 08:26:08;;;;;;;3.65;1.40;;;;;;;;;;10443496;22;145226;-84
2021/06/22 08:31:09;;;;;;;2.83;1.50;;;;;;;;;;10406885;28;20073;-84
2021/06/22 08:36:14;;;;;;;3.25;1.63;;;;;;;;;;10369662;28;20046;-83
2021/06/22 08:41:16;;;;;;;5.47;1.60;;;;;;;;;;10395457;28;20176;-82
2021/06/22 08:46:17;;;;;;;2.58;1.70;;;;;;;;;;10406365;28;20132;-81
2021/06/22 08:51:20;;;;;;;2.50;1.70;;;;;;;;;;10406348;28;20244;-82
2021/06/22 08:56:25;;;;;;;7.13;1.70;;;;;;;;;;10405801;28;20073;-82
2021/06/22 09:01:26;;;;;;;3.03;1.70;;;;;;;;;;10405162;28;20053;-82
2021/06/22 09:06:38;;;;;;;3.58;1.70;;;;;;;;;;10404953;28;20045;-82
2021/06/22 09:11:39;;;;;;;3.20;1.70;;;;;;;;;;10404816;28;20084;-82
2021/06/22 09:16:41;;;;;;;4.18;2.00;;;;;;;;;;10406174;28;20140;-82
2021/06/22 09:21:43;;;;;;;3.40;1.60;;;;;;;;;;10402838;28;20053;-83
2021/06/22 09:26:46;;;;;;;4.95;1.73;;;;;;;;;;10405993;28;20495;-83
2021/06/22 09:31:55;;;;;;;2.90;1.80;;;;;;;;;;10407118;28;20533;-84
2021/06/22 09:36:58;;;;;;;5.18;1.50;;;;;;;;;;10406536;28;20089;-84
2021/06/22 09:42:00;;;;;;;2.45;1.70;;;;;;;;;;10420008;28;20041;-84
2021/06/22 09:47:01;;;;;;;3.30;1.60;;;;;;;;;;10405095;28;20049;-84
2021/06/22 09:52:08;;;;;;;4.50;1.77;;;;;;;;;;10406248;28;20132;-84
2021/06/22 09:57:09;;;;;;;2.13;1.42;;;;;;;;;;10406515;28;20103;-84
2021/06/22 10:02:11;;;;;;;1.77;1.48;;;;;;;;;;10405416;28;20088;-83
2021/06/22 10:07:14;;;;;;;2.22;1.50;;;;;;;;;;10405111;28;20472;-84
2021/06/22 10:12:15;;;;;;;4.03;1.60;;;;;;;;;;10405583;28;20077;-84
2021/06/22 10:17:18;;;;;;;4.10;1.60;;;;;;;;;;10407157;28;20108;-83
2021/06/22 10:22:22;;;;;;;3.45;1.48;;;;;;;;;;10376887;28;20411;-83
2021/06/22 10:27:27;;;;;;;3.25;1.60;;;;;;;;;;10373372;28;20094;-84
2021/06/22 10:32:29;;;;;;;2.75;1.63;;;;;;;;;;10372928;28;20049;-83
2021/06/22 10:37:33;;;;;;;2.53;1.65;;;;;;;;;;10371147;28;20129;-84
2021/06/22 10:42:47;;;;;;;5.40;1.83;;;;;;;;;;10372670;28;20081;-84
2021/06/22 10:47:56;;;;;;;5.32;1.70;;;;;;;;;;10370575;28;20068;-84
2021/06/22 10:53:05;;;;;;;3.35;1.67;;;;;;;;;;10373326;28;20454;-84
2021/06/22 10:58:07;;;;;;;4.78;1.80;;;;;;;;;;10374805;28;20054;-84
2021/06/22 11:03:29;;;;;;;5.00;1.40;;;;;;;;;;10369845;28;20486;-84
2021/06/22 11:08:31;;;;;;;4.82;1.70;;;;;;;;;;10371375;28;20395;-83
2021/06/22 11:13:34;;;;;;;4.20;1.60;;;;;;;;;;10370945;28;20093;-84
2021/06/22 11:19:00;;;;;;;3.63;1.70;;;;;;;;;;10377978;28;20049;-83
2021/06/22 11:24:08;;;;;;;2.40;1.60;;;;;;;;;;10410825;28;20116;-83
2021/06/22 11:29:11;;;;;;;4.35;1.70;;;;;;;;;;10412016;28;20107;-84
2021/06/22 11:34:13;;;;;;;3.28;1.65;;;;;;;;;;10410131;28;20100;-83
2021/06/22 11:39:18;;;;;;;3.08;1.75;;;;;;;;;;10411734;28;20056;-84
2021/06/22 11:44:26;;;;;;;3.08;1.52;;;;;;;;;;10410253;28;20107;-84
2021/06/22 11:49:42;;;;;;;3.97;1.67;;;;;;;;;;10406904;28;20108;-84
2021/06/22 11:54:47;;;;;;;4.10;1.80;;;;;;;;;;10382557;28;20100;-83
2021/06/22 11:59:48;;;;;;;3.38;1.90;;;;;;;;;;10368466;28;20050;-83
2021/06/22 12:04:50;;;;;;;3.15;1.60;;;;;;;;;;10369384;28;20584;-84
2021/06/22 12:09:52;;;;;;;3.88;1.70;;;;;;;;;;10370244;28;20054;-83
2021/06/22 12:14:55;;;;;;;3.38;1.60;;;;;;;;;;10370966;28;20049;-83
2021/06/22 12:19:57;;;;;;;4.82;1.80;;;;;;;;;;10414791;28;20049;-83
2021/06/22 12:24:59;;;;;;;4.15;2.00;;;;;;;;;;10409962;28;20057;-83
2021/06/22 12:30:00;;;;;;;4.00;1.70;;;;;;;;;;10408835;28;20054;-84
2021/06/22 12:35:02;;;;;;;4.53;1.73;;;;;;;;;;10409173;28;20466;-82
2021/06/22 12:40:04;;;;;;;4.65;2.00;;;;;;;;;;10409099;28;20053;-81
2021/06/22 12:45:14;;;;;;;6.95;2.00;;;;;;;;;;10420076;28;20068;-81
2021/06/22 12:50:21;;;;;;;7.88;2.65;;;;;;;;;;10419971;28;20050;-81
2021/06/22 12:55:36;;;;;;;4.50;2.20;;;;;;;;;;10408292;28;20080;-82
2021/06/22 13:00:38;;;;;;;4.32;2.30;;;;;;;;;;10406242;28;20084;-82
2021/06/22 13:05:40;;;;;;;4.88;2.30;;;;;;;;;;10374203;28;20078;-83
2021/06/22 13:11:05;;;;;;;4.05;2.25;;;;;;;;;;10375651;28;20410;-83
2021/06/22 13:16:07;;;;;;;7.00;2.80;;;;;;;;;;10406282;28;20079;-83
2021/06/22 13:21:12;;;;;;;6.45;2.33;;;;;;;;;;10407538;28;20499;-83
2021/06/22 13:26:14;;;;;;;4.32;2.38;;;;;;;;;;10406789;28;20057;-83
2021/06/22 13:31:15;;;;;;;5.75;2.40;;;;;;;;;;10405919;28;20119;-83
2021/06/22 13:36:18;;;;;;;4.90;2.45;;;;;;;;;;10405107;28;20132;-83
2021/06/22 13:41:20;;;;;;;6.70;2.65;;;;;;;;;;10405819;28;20045;-83
2021/06/22 13:46:25;;;;;;;4.72;2.65;;;;;;;;;;10406857;28;20195;-83
2021/06/22 13:51:28;;;;;;;8.55;2.70;;;;;;;;;;10406280;28;20368;-83
2021/06/22 13:56:31;;;;;;;6.30;3.22;;;;;;;;;;10407627;28;20053;-83
2021/06/22 14:01:32;;;;;;;6.53;3.63;;;;;;;;;;10412841;28;20064;-83
2021/06/22 14:06:34;;;;;;;7.90;2.70;;;;;;;;;;10372619;28;20062;-83
2021/06/22 14:11:36;;;;;;;4.97;3.08;;;;;;;;;;10390954;28;20140;-83
2021/06/22 14:16:37;;;;;;;4.88;3.10;;;;;;;;;;10412375;28;20050;-83
2021/06/22 14:21:40;;;;;;;4.68;3.10;;;;;;;;;;10386838;28;20052;-83
2021/06/22 14:26:55;;;;;;;7.57;3.30;;;;;;;;;;10370494;28;20080;-83
2021/06/22 14:31:57;;;;;;;6.60;2.90;;;;;;;;;;10370570;28;20062;-83
2021/06/22 14:36:59;;;;;;;3.80;2.58;;;;;;;;;;10372745;28;20081;-83
2021/06/22 14:42:00;;;;;;;5.75;2.88;;;;;;;;;;10390370;28;20065;-82
2021/06/22 14:47:02;;;;;;;7.82;3.10;;;;;;;;;;10412744;28;20046;-83
2021/06/22 14:52:04;;;;;;;5.03;3.10;;;;;;;;;;10411810;28;20858;-82
2021/06/22 14:57:06;;;;;;;6.03;2.83;;;;;;;;;;10420688;28;20564;-82
2021/06/22 15:02:08;;;;;;;6.38;3.15;;;;;;;;;;10412047;28;20080;-82
2021/06/22 15:07:09;;;;;;;8.13;2.92;;;;;;;;;;10410211;28;20080;-83
2021/06/22 15:12:11;;;;;;;5.20;2.70;;;;;;;;;;10417895;28;20068;-83
2021/06/22 15:17:12;;;;;;;4.43;2.92;;;;;;;;;;10422605;28;20076;-83
2021/06/22 15:22:14;;;;;;;5.47;2.90;;;;;;;;;;10410072;28;20077;-83
2021/06/22 15:27:16;;;;;;;5.97;2.80;;;;;;;;;;10406652;28;20473;-82
2021/06/22 15:32:17;;;;;;;5.32;2.75;;;;;;;;;;10407569;28;20133;-82
2021/06/22 15:37:19;;;;;;;7.35;2.72;;;;;;;;;;10407575;28;20054;-82
2021/06/22 15:42:21;;;;;;;6.03;3.03;;;;;;;;;;10410200;28;20099;-82
2021/06/22 15:47:22;;;;;;;4.90;3.10;;;;;;;;;;10406414;28;20057;-83
2021/06/22 15:52:24;;;;;;;6.35;2.78;;;;;;;;;;10410501;28;20143;-82
2021/06/22 15:57:26;;;;;;;4.82;2.90;;;;;;;;;;10407530;28;20054;-82
2021/06/22 16:02:28;;;;;;;8.10;3.50;;;;;;;;;;10406818;28;20056;-83
2021/06/22 16:07:30;;;;;;;8.05;3.33;;;;;;;;;;10406732;28;20073;-82
2021/06/22 16:12:32;;;;;;;5.90;3.05;;;;;;;;;;10408658;28;20053;-83
2021/06/22 16:17:34;;;;;;;5.60;3.20;;;;;;;;;;10406746;28;20483;-82
2021/06/22 16:22:36;;;;;;;5.93;3.40;;;;;;;;;;10407845;28;20088;-83
2021/06/22 16:27:38;;;;;;;5.30;3.03;;;;;;;;;;10407554;28;20049;-83
2021/06/22 16:32:40;;;;;;;5.43;3.20;;;;;;;;;;10407760;28;20583;-82
2021/06/22 16:37:42;;;;;;;6.38;2.90;;;;;;;;;;10408754;28;20099;-82
2021/06/22 16:42:44;;;;;;;5.72;3.22;;;;;;;;;;10407536;28;20109;-82
2021/06/22 16:47:46;;;;;;;10.48;3.00;;;;;;;;;;10406880;28;20049;-81
2021/06/22 16:52:47;;;;;;;5.28;2.97;;;;;;;;;;10406847;28;20068;-84
2021/06/22 16:57:53;;;;;;;7.22;3.20;;;;;;;;;;10407224;28;20045;-81
2021/06/22 17:02:56;;;;;;;7.03;3.53;;;;;;;;;;10403619;28;20045;-82
2021/06/22 17:07:57;;;;;;;7.68;3.30;;;;;;;;;;10403965;28;20117;-82
2021/06/22 17:13:00;;;;;;;5.70;3.35;;;;;;;;;;10405358;28;20126;-82
2021/06/22 17:18:03;;;;;;;6.10;3.40;;;;;;;;;;10406394;28;20050;-82
2021/06/22 17:23:06;;;;;;;8.57;3.47;;;;;;;;;;10404607;28;20500;-81
2021/06/22 17:28:09;;;;;;;7.57;3.35;;;;;;;;;;10402444;28;20057;-81
2021/06/22 17:33:11;;;;;;;7.35;3.38;;;;;;;;;;10416819;28;20482;-81
2021/06/22 17:38:13;;;;;;;8.23;3.45;;;;;;;;;;10416632;28;20053;-81
2021/06/22 17:43:15;;;;;;;6.03;3.28;;;;;;;;;;10411784;28;20044;-81
2021/06/22 17:48:17;;;;;;;7.65;3.38;;;;;;;;;;10411487;28;20069;-81
2021/06/22 17:53:18;;;;;;;8.18;3.45;;;;;;;;;;10411216;28;21030;-82
2021/06/22 17:58:20;;;;;;;7.07;3.70;;;;;;;;;;10412489;28;20076;-81
2021/06/22 18:03:21;;;;;;;9.93;3.90;;;;;;;;;;10409900;28;20057;-82
2021/06/22 18:08:23;;;;;;;10.80;4.03;;;;;;;;;;10409751;28;20085;-82
2021/06/22 18:13:24;;;;;;;8.63;3.88;;;;;;;;;;10410246;28;20115;-83
2021/06/22 18:18:26;;;;;;;8.68;4.15;;;;;;;;;;10410647;28;20085;-82
2021/06/22 18:23:28;;;;;;;5.63;3.80;;;;;;;;;;10410727;28;20107;-83
2021/06/22 18:28:30;;;;;;;10.18;3.85;;;;;;;;;;10411776;28;20449;-82
2021/06/22 18:33:32;;;;;;;9.40;3.83;;;;;;;;;;10408192;28;20061;-82
2021/06/22 18:38:34;;;;;;;6.57;3.83;;;;;;;;;;10409994;28;20041;-82
2021/06/22 18:43:35;;;;;;;9.98;4.05;;;;;;;;;;10409147;28;20667;-82
2021/06/22 18:48:37;;;;;;;6.25;3.97;;;;;;;;;;10409667;28;20057;-83
2021/06/22 18:53:38;;;;;;;10.50;4.35;;;;;;;;;;10410785;28;20065;-83
2021/06/22 18:58:40;;;;;;;7.30;4.20;;;;;;;;;;10409463;28;20528;-83
2021/06/22 19:03:42;;;;;;;6.75;4.00;;;;;;;;;;10410320;28;20053;-84
2021/06/22 19:08:43;;;;;;;6.00;4.07;;;;;;;;;;10403455;28;20146;-83
2021/06/22 19:13:45;;;;;;;10.40;4.40;;;;;;;;;;10404849;28;20084;-83
2021/06/22 19:18:46;;;;;;;6.65;4.05;;;;;;;;;;10409750;28;20050;-83
2021/06/22 19:23:49;;;;;;;10.15;4.15;;;;;;;;;;10408936;28;20549;-83
2021/06/22 19:28:50;;;;;;;7.68;4.30;;;;;;;;;;10409117;28;20502;-84
2021/06/22 19:33:52;;;;;;;8.60;4.00;;;;;;;;;;10409481;28;20053;-83
2021/06/22 19:38:54;;;;;;;9.82;4.40;;;;;;;;;;10408178;28;20092;-84
2021/06/22 19:43:56;;;;;;;8.40;4.03;;;;;;;;;;10409385;28;20088;-83
2021/06/22 19:48:57;;;;;;;6.57;4.10;;;;;;;;;;10408019;28;20269;-84
2021/06/22 19:53:59;;;;;;;7.75;4.28;;;;;;;;;;10408237;28;20191;-84
2021/06/22 19:59:01;;;;;;;6.45;3.83;;;;;;;;;;10408149;28;20483;-84
2021/06/22 20:04:05;;;;;;;8.57;4.35;;;;;;;;;;10409413;28;20049;-84
2021/06/22 20:09:06;;;;;;;7.80;4.38;;;;;;;;;;10408525;28;20081;-84
2021/06/22 20:14:11;;;;;;;9.60;4.60;;;;;;;;;;10415893;28;20060;-83
2021/06/22 20:19:12;;;;;;;8.98;4.50;;;;;;;;;;10407454;28;20103;-84
2021/06/22 20:24:14;;;;;;;10.60;4.35;;;;;;;;;;10407530;28;20111;-83
2021/06/22 20:29:15;;;;;;;8.50;4.10;;;;;;;;;;10407632;28;20049;-84
2021/06/22 20:34:17;;;;;;;11.55;4.60;;;;;;;;;;10408309;28;20054;-83
2021/06/22 20:39:19;;;;;;;11.20;5.00;;;;;;;;;;10406837;28;20050;-84
2021/06/22 20:44:21;;;;;;;9.30;4.38;;;;;;;;;;10407094;28;20073;-84
2021/06/22 20:49:23;;;;;;;9.35;4.25;;;;;;;;;;10408268;28;20448;-84
2021/06/22 20:54:25;;;;;;;13.30;4.97;;;;;;;;;;10408608;28;20053;-85
2021/06/22 20:59:27;;;;;;;8.35;4.50;;;;;;;;;;10408532;28;20080;-84
2021/06/22 21:04:28;;;;;;;8.63;4.60;;;;;;;;;;10400426;28;20108;-84
2021/06/22 21:09:30;;;;;;;10.95;4.45;;;;;;;;;;10406894;28;20057;-88
2021/06/22 21:14:31;;;;;;;8.82;4.35;;;;;;;;;;10408248;28;20107;-87
2021/06/22 21:19:34;;;;;;;8.38;4.80;;;;;;;;;;10368098;28;20565;-87
2021/06/22 21:24:36;;;;;;;8.38;4.18;;;;;;;;;;10366971;28;20054;-87
2021/06/22 21:29:37;;;;;;;7.38;4.40;;;;;;;;;;10367769;28;20096;-87
2021/06/22 21:34:39;;;;;;;8.80;4.50;;;;;;;;;;10368970;28;20104;-88
2021/06/22 21:39:41;;;;;;;7.75;4.30;;;;;;;;;;10369250;28;20045;-85
2021/06/22 21:44:42;;;;;;;7.28;4.60;;;;;;;;;;10371965;28;20053;-85
2021/06/22 21:49:44;;;;;;;7.65;4.70;;;;;;;;;;10369550;28;20061;-84
2021/06/22 21:54:45;;;;;;;9.68;4.90;;;;;;;;;;10370723;28;20137;-83
2021/06/22 21:59:47;;;;;;;9.45;5.00;;;;;;;;;;10371175;28;20073;-85
2021/06/22 22:04:48;;;;;;;10.27;4.72;;;;;;;;;;10372220;28;20077;-84
2021/06/22 22:09:50;;;;;;;10.38;4.57;;;;;;;;;;10371775;28;20042;-85
2021/06/22 22:14:52;;;;;;;9.90;5.10;;;;;;;;;;10365655;28;20076;-84
2021/06/22 22:19:53;;;;;;;11.05;5.45;;;;;;;;;;10379201;28;20046;-83
2021/06/22 22:24:55;;;;;;;7.35;4.80;;;;;;;;;;10380387;28;20096;-83
2021/06/22 22:29:56;;;;;;;9.40;5.10;;;;;;;;;;10376315;28;20050;-84
2021/06/22 22:34:59;;;;;;;10.32;5.15;;;;;;;;;;10371728;28;20403;-84
2021/06/22 22:40:00;;;;;;;9.27;4.72;;;;;;;;;;10371322;28;20100;-82
2021/06/22 22:45:03;;;;;;;9.65;4.95;;;;;;;;;;10370524;28;20085;-83
2021/06/22 22:50:07;;;;;;;8.02;4.53;;;;;;;;;;10377431;28;20046;-83
2021/06/22 22:55:09;;;;;;;7.20;4.63;;;;;;;;;;10373428;28;20078;-83
2021/06/22 23:00:11;;;;;;;8.50;4.78;;;;;;;;;;10369370;28;20543;-83
2021/06/22 23:05:13;;;;;;;9.20;4.60;;;;;;;;;;10351931;28;20439;-83
2021/06/22 23:10:15;;;;;;;8.07;3.97;;;;;;;;;;10370266;28;20076;-83
2021/06/22 23:15:16;;;;;;;7.90;4.95;;;;;;;;;;10370436;28;22422;-84
2021/06/22 23:20:18;;;;;;;10.85;4.63;;;;;;;;;;10369874;28;20069;-83
2021/06/22 23:25:20;;;;;;;10.95;4.40;;;;;;;;;;10369521;28;20056;-83
2021/06/22 23:30:22;;;;;;;8.18;4.55;;;;;;;;;;10368692;28;20073;-84
2021/06/22 23:35:24;;;;;;;9.85;4.35;;;;;;;;;;10369578;28;20056;-83
2021/06/22 23:40:26;;;;;;;8.30;4.80;;;;;;;;;;10369300;28;20133;-83
2021/06/22 23:45:28;;;;;;;9.23;4.85;;;;;;;;;;10369314;28;20096;-83
2021/06/22 23:50:29;;;;;;;10.45;4.72;;;;;;;;;;10368483;28;20061;-83
2021/06/22 23:55:31;;;;;;;7.70;4.28;;;;;;;;;;10368603;28;20096;-83
